Time;durP1;ratioP1;P1;durP2;ratioP2;P2;SDS_P1;SDS_P2;PMS_P1;PMS_P2;Temp;Humidity;BMP_temperature;BMP_pressure;BME280_temperature;BME280_humidity;BME280_pressure;Samples;Min_cycle;Max_cycle;Signal;HPM_P1;HPM_P2
2021/06/08 00:01:16;;;;;;;1.75;1.65;;;19.10;99.90;;;;;;5093609;28;20028;-79
2021/06/08 00:03:42;;;;;;;2.85;2.20;;;19.10;99.90;;;;;;5094715;28;20103;-78
2021/06/08 00:06:07;;;;;;;2.22;2.03;;;19.10;99.90;;;;;;5093352;28;20126;-78
2021/06/08 00:08:33;;;;;;;2.22;1.90;;;19.10;99.90;;;;;;5093563;28;20056;-79
2021/06/08 00:10:59;;;;;;;1.85;1.65;;;19.00;99.90;;;;;;5090106;28;20035;-79
2021/06/08 00:13:25;;;;;;;2.97;1.70;;;19.00;99.90;;;;;;5074531;28;20028;-79
2021/06/08 00:15:50;;;;;;;1.75;1.65;;;19.00;99.90;;;;;;5074361;28;20029;-78
2021/06/08 00:18:16;;;;;;;1.85;1.75;;;19.00;99.90;;;;;;5074584;28;20028;-78
2021/06/08 00:20:42;;;;;;;1.65;1.55;;;19.10;99.90;;;;;;5074406;28;20021;-78
2021/06/08 00:23:08;;;;;;;1.42;1.40;;;19.10;99.90;;;;;;5074302;28;20044;-78
2021/06/08 00:25:33;;;;;;;3.55;1.90;;;19.10;99.90;;;;;;5085140;28;20162;-78
2021/06/08 00:28:01;;;;;;;1.95;1.73;;;19.20;99.90;;;;;;5093028;28;20498;-78
2021/06/08 00:30:27;;;;;;;1.85;1.75;;;19.20;99.90;;;;;;5093194;28;20031;-79
2021/06/08 00:32:52;;;;;;;1.77;1.67;;;19.20;99.90;;;;;;5094385;28;20474;-78
2021/06/08 00:35:18;;;;;;;2.00;1.65;;;19.10;99.90;;;;;;5093939;28;20046;-78
2021/06/08 00:37:44;;;;;;;2.25;1.95;;;19.10;99.90;;;;;;5094185;28;20020;-79
2021/06/08 00:40:10;;;;;;;2.00;1.90;;;19.20;99.90;;;;;;5094327;28;20016;-78
2021/06/08 00:42:36;;;;;;;1.70;1.60;;;19.20;99.90;;;;;;5094351;28;20021;-78
2021/06/08 00:45:05;;;;;;;1.60;1.50;;;19.20;99.90;;;;;;5094032;28;20035;-79
2021/06/08 00:47:31;;;;;;;1.80;1.70;;;19.30;99.90;;;;;;5092862;28;20032;-79
2021/06/08 00:49:58;;;;;;;2.67;1.70;;;19.30;99.90;;;;;;5093925;28;20031;-78
2021/06/08 00:52:24;;;;;;;1.70;1.60;;;19.30;99.90;;;;;;5094017;28;20030;-78
2021/06/08 00:54:50;;;;;;;1.98;1.70;;;19.40;99.90;;;;;;5092535;28;20032;-79
2021/06/08 00:57:17;;;;;;;2.00;1.90;;;19.40;99.90;;;;;;5094080;28;20016;-78
2021/06/08 00:59:42;;;;;;;2.45;1.65;;;19.40;99.90;;;;;;5093470;28;20480;-78
2021/06/08 01:02:08;;;;;;;5.53;1.77;;;19.40;99.90;;;;;;5093815;28;20027;-78
2021/06/08 01:04:34;;;;;;;1.60;1.50;;;19.30;99.90;;;;;;5092446;28;20177;-79
2021/06/08 01:07:00;;;;;;;2.00;1.80;;;19.20;99.90;;;;;;5092349;28;20028;-78
2021/06/08 01:09:26;;;;;;;1.63;1.55;;;19.20;99.90;;;;;;5093921;28;20088;-78
2021/06/08 01:11:51;;;;;;;3.38;2.03;;;19.20;99.90;;;;;;5092435;28;20020;-78
2021/06/08 01:14:17;;;;;;;1.88;1.77;;;19.20;99.90;;;;;;5093642;28;20059;-78
2021/06/08 01:16:43;;;;;;;2.75;1.55;;;19.20;99.90;;;;;;5092124;28;20020;-78
2021/06/08 01:19:09;;;;;;;2.85;1.98;;;19.20;99.90;;;;;;5093402;28;20027;-78
2021/06/08 01:21:35;;;;;;;7.85;1.80;;;19.20;99.90;;;;;;5093314;28;20469;-78
2021/06/08 01:24:02;;;;;;;4.32;1.95;;;19.20;99.90;;;;;;5092298;28;20115;-78
2021/06/08 01:26:29;;;;;;;1.45;1.42;;;19.20;99.90;;;;;;5097487;28;20027;-79
2021/06/08 01:29:01;;;;;;;1.85;1.75;;;19.20;99.90;;;;;;5092194;28;20028;-78
2021/06/08 01:31:30;;;;;;;4.53;1.80;;;19.20;99.90;;;;;;5093300;28;20467;-78
2021/06/08 01:33:57;;;;;;;1.73;1.63;;;19.20;99.90;;;;;;5093347;28;20122;-78
2021/06/08 01:36:24;;;;;;;1.60;1.50;;;19.20;99.90;;;;;;5093276;28;20028;-79
2021/06/08 01:38:51;;;;;;;1.80;1.70;;;19.20;99.90;;;;;;5093345;28;20423;-78
2021/06/08 01:41:23;;;;;;;1.80;1.70;;;19.20;99.90;;;;;;5091814;28;20046;-78
2021/06/08 01:43:49;;;;;;;;;;;19.20;99.90;;;;;;5093419;28;20099;-78
2021/06/08 01:46:19;;;;;;;2.00;1.90;;;19.20;99.90;;;;;;5093198;28;19911;-79
2021/06/08 01:48:46;;;;;;;6.47;1.77;;;19.20;99.90;;;;;;5091764;28;20038;-79
2021/06/08 01:51:23;;;;;;;1.88;1.77;;;19.30;99.90;;;;;;5091355;28;20085;-80
2021/06/08 01:54:04;;;;;;;3.83;1.60;;;19.30;99.90;;;;;;5091477;28;20031;-79
2021/06/08 01:56:32;;;;;;;3.60;1.67;;;19.30;99.90;;;;;;5092787;28;20032;-78
2021/06/08 01:59:00;;;;;;;1.58;1.48;;;19.30;99.90;;;;;;5091271;28;20048;-78
2021/06/08 02:01:50;;;;;;;1.67;1.58;;;19.30;99.90;;;;;;5091449;28;20391;-78
2021/06/08 02:04:42;;;;;;;3.17;1.65;;;19.20;99.90;;;;;;5072685;28;20473;-78
2021/06/08 02:07:43;;;;;;;2.28;1.95;;;19.20;99.90;;;;;;5047732;28;20036;-78
2021/06/08 02:10:32;;;;;;;1.70;1.60;;;19.10;99.90;;;;;;5071448;28;20024;-78
2021/06/08 02:13:15;;;;;;;1.70;1.60;;;19.10;99.90;;;;;;5092536;28;20031;-78
2021/06/08 02:15:53;;;;;;;3.08;1.40;;;19.10;99.90;;;;;;5092711;28;20032;-78
2021/06/08 02:18:20;;;;;;;1.55;1.52;;;19.10;99.90;;;;;;5092843;28;20559;-78
2021/06/08 02:20:47;;;;;;;1.95;1.85;;;19.10;99.90;;;;;;5092932;28;20028;-78
2021/06/08 02:23:17;;;;;;;4.45;2.08;;;19.10;99.90;;;;;;5092644;28;20040;-79
2021/06/08 02:25:44;;;;;;;2.10;1.90;;;19.10;99.90;;;;;;5092717;28;20016;-78
2021/06/08 02:28:14;;;;;;;1.85;1.75;;;19.00;99.90;;;;;;5091121;28;20040;-78
2021/06/08 02:30:43;;;;;;;2.95;1.88;;;19.00;99.90;;;;;;5092595;28;20032;-79
2021/06/08 02:33:09;;;;;;;2.85;1.77;;;19.00;99.90;;;;;;5096223;28;20047;-79
2021/06/08 02:35:36;;;;;;;1.73;1.63;;;19.00;99.90;;;;;;5096478;28;20682;-78
2021/06/08 02:38:03;;;;;;;1.88;1.77;;;19.00;99.90;;;;;;5095210;28;20077;-78
2021/06/08 02:40:30;;;;;;;1.90;1.80;;;18.90;99.90;;;;;;5095142;28;20111;-79
2021/06/08 02:42:56;;;;;;;2.17;2.08;;;18.90;99.90;;;;;;5096704;28;20065;-78
2021/06/08 02:45:22;;;;;;;2.20;2.10;;;19.00;99.90;;;;;;5096059;28;20024;-78
2021/06/08 02:47:49;;;;;;;2.40;2.20;;;18.90;99.90;;;;;;5095171;28;20032;-78
2021/06/08 02:50:16;;;;;;;1.85;1.75;;;18.90;99.90;;;;;;5095151;28;20455;-78
2021/06/08 02:52:43;;;;;;;2.20;2.00;;;19.00;99.90;;;;;;5096354;28;20115;-78
2021/06/08 02:55:09;;;;;;;1.80;1.70;;;19.00;99.90;;;;;;5096175;28;20103;-78
2021/06/08 02:57:37;;;;;;;1.75;1.65;;;19.00;99.90;;;;;;5096245;28;20383;-78
2021/06/08 03:00:06;;;;;;;2.13;2.03;;;19.00;99.90;;;;;;5094890;28;20016;-78
2021/06/08 03:02:36;;;;;;;2.17;1.98;;;19.10;99.90;;;;;;5094630;28;20558;-79
2021/06/08 03:05:05;;;;;;;1.85;1.75;;;19.00;99.90;;;;;;5096058;28;20031;-78
2021/06/08 03:07:35;;;;;;;1.85;1.75;;;19.00;99.90;;;;;;5094488;28;20024;-79
2021/06/08 03:10:16;;;;;;;1.95;1.85;;;19.00;99.90;;;;;;5095855;28;20384;-78
2021/06/08 03:12:56;;;;;;;3.17;1.98;;;19.00;99.90;;;;;;5095874;28;20061;-79
2021/06/08 03:15:29;;;;;;;2.35;2.17;;;19.00;99.90;;;;;;5095883;28;20039;-78
2021/06/08 03:17:56;;;;;;;2.00;1.90;;;19.00;99.90;;;;;;5095740;28;20108;-78
2021/06/08 03:21:11;;;;;;;2.15;2.05;;;19.00;99.90;;;;;;5094465;28;20058;-78
2021/06/08 03:23:41;;;;;;;2.90;1.85;;;19.00;99.90;;;;;;5091545;28;20173;-78
2021/06/08 03:26:09;;;;;;;2.40;2.30;;;19.00;99.90;;;;;;5095698;28;20387;-78
2021/06/08 03:28:36;;;;;;;2.50;2.28;;;19.00;99.90;;;;;;5093790;28;20074;-78
2021/06/08 03:31:03;;;;;;;2.33;2.22;;;19.00;99.90;;;;;;5094241;28;20533;-78
2021/06/08 03:33:30;;;;;;;6.15;3.33;;;19.00;99.90;;;;;;5094165;28;20042;-79
2021/06/08 03:35:57;;;;;;;2.13;1.90;;;18.90;99.90;;;;;;5094077;28;20377;-78
2021/06/08 03:38:24;;;;;;;2.28;2.17;;;18.90;99.90;;;;;;5095420;28;20016;-79
2021/06/08 03:40:52;;;;;;;2.10;2.00;;;18.90;99.90;;;;;;5093182;28;20020;-78
2021/06/08 03:43:18;;;;;;;7.53;2.03;;;19.00;99.90;;;;;;5074604;28;20074;-78
2021/06/08 03:45:50;;;;;;;2.42;2.10;;;19.00;99.90;;;;;;5079057;28;20587;-78
2021/06/08 03:48:17;;;;;;;10.45;2.55;;;18.90;99.90;;;;;;5093507;28;20115;-79
2021/06/08 03:50:49;;;;;;;2.28;2.17;;;18.90;99.90;;;;;;5094833;28;20032;-78
2021/06/08 03:53:15;;;;;;;3.08;1.77;;;19.00;99.90;;;;;;5095019;28;20023;-78
2021/06/08 03:55:42;;;;;;;1.98;1.88;;;19.00;99.90;;;;;;5093707;28;20028;-79
2021/06/08 03:58:14;;;;;;;2.40;2.30;;;18.90;99.90;;;;;;5095238;28;20016;-78
2021/06/08 04:00:41;;;;;;;5.72;2.08;;;19.00;99.90;;;;;;5095008;28;20111;-78
2021/06/08 04:03:10;;;;;;;2.10;2.00;;;19.00;99.90;;;;;;5095058;28;20484;-78
2021/06/08 04:05:37;;;;;;;2.00;1.90;;;19.00;99.90;;;;;;5094942;28;20028;-78
2021/06/08 04:08:05;;;;;;;1.90;1.80;;;19.00;99.90;;;;;;5094773;28;20510;-78
2021/06/08 04:10:31;;;;;;;2.10;2.00;;;19.10;99.90;;;;;;5127844;27;20063;-78
2021/06/08 04:13:02;;;;;;;7.32;2.30;;;19.00;99.90;;;;;;5093281;28;20035;-78
2021/06/08 04:15:29;;;;;;;2.10;2.00;;;19.00;99.90;;;;;;5094618;28;20073;-78
2021/06/08 04:17:55;;;;;;;5.13;2.53;;;19.00;99.90;;;;;;5093136;28;20027;-78
2021/06/08 04:20:22;;;;;;;3.03;2.60;;;18.90;99.90;;;;;;5094659;28;20514;-79
2021/06/08 04:22:48;;;;;;;2.58;2.38;;;19.00;99.90;;;;;;5092718;28;20457;-79
2021/06/08 04:25:17;;;;;;;3.72;2.42;;;19.00;99.90;;;;;;5072522;28;20036;-78
2021/06/08 04:27:43;;;;;;;2.00;1.90;;;19.00;99.90;;;;;;5087274;28;20028;-79
2021/06/08 04:30:11;;;;;;;2.00;1.90;;;18.90;99.90;;;;;;5092992;28;20111;-79
2021/06/08 04:32:36;;;;;;;2.50;2.30;;;18.90;99.90;;;;;;5094167;28;20039;-79
2021/06/08 04:35:05;;;;;;;2.85;2.65;;;18.90;99.90;;;;;;5092612;28;20036;-78
2021/06/08 04:37:31;;;;;;;2.47;1.90;;;18.90;99.90;;;;;;5084008;28;20024;-78
2021/06/08 04:39:57;;;;;;;2.85;1.95;;;18.90;99.90;;;;;;5094186;28;20104;-78
2021/06/08 04:42:23;;;;;;;2.38;2.20;;;18.90;99.90;;;;;;5092752;28;20103;-78
2021/06/08 04:44:51;;;;;;;2.00;1.90;;;18.90;99.90;;;;;;5094195;28;20027;-79
2021/06/08 04:47:18;;;;;;;4.75;2.28;;;18.90;99.90;;;;;;5093859;28;20012;-78
2021/06/08 04:49:45;;;;;;;3.13;2.08;;;18.80;99.90;;;;;;5093934;28;20111;-78
2021/06/08 04:52:11;;;;;;;2.60;2.50;;;18.80;99.90;;;;;;5092878;28;20055;-78
2021/06/08 04:54:38;;;;;;;4.18;2.40;;;18.80;99.90;;;;;;5092158;28;20016;-79
2021/06/08 04:57:05;;;;;;;2.50;2.30;;;18.90;99.90;;;;;;5093878;28;20506;-78
2021/06/08 04:59:49;;;;;;;2.10;2.00;;;18.90;99.90;;;;;;5093945;28;20028;-78
2021/06/08 05:02:26;;;;;;;2.15;2.05;;;19.00;99.90;;;;;;5092547;28;20028;-78
2021/06/08 05:04:53;;;;;;;2.80;2.60;;;19.00;99.90;;;;;;5093775;28;20043;-78
2021/06/08 05:07:22;;;;;;;2.55;2.35;;;19.00;99.90;;;;;;5093611;28;20055;-78
2021/06/08 05:09:51;;;;;;;2.45;2.30;;;19.10;99.90;;;;;;5092291;28;20028;-78
2021/06/08 05:12:19;;;;;;;2.10;1.90;;;19.20;99.90;;;;;;5085551;28;20482;-78
2021/06/08 05:14:53;;;;;;;2.25;2.08;;;19.20;99.90;;;;;;5093442;28;20024;-78
2021/06/08 05:17:21;;;;;;;3.58;2.22;;;19.30;99.90;;;;;;5092496;28;20024;-78
2021/06/08 05:19:50;;;;;;;2.55;2.40;;;19.30;99.90;;;;;;5093361;28;20028;-78
2021/06/08 05:22:20;;;;;;;2.28;2.17;;;19.40;99.90;;;;;;5093276;28;20040;-78
2021/06/08 05:25:05;;;;;;;2.55;2.40;;;19.40;99.90;;;;;;5093400;28;20024;-78
2021/06/08 05:27:32;;;;;;;2.38;2.20;;;19.40;99.90;;;;;;5093284;28;20020;-79
2021/06/08 05:29:58;;;;;;;2.63;2.42;;;19.40;99.90;;;;;;5092956;28;20099;-78
2021/06/08 05:32:24;;;;;;;2.80;2.60;;;19.40;99.90;;;;;;5093139;28;20020;-79
2021/06/08 05:34:50;;;;;;;2.40;2.30;;;19.50;99.90;;;;;;5092934;28;20046;-79
2021/06/08 05:37:17;;;;;;;2.80;2.50;;;19.50;99.90;;;;;;5093140;28;20017;-79
2021/06/08 05:39:45;;;;;;;3.83;2.45;;;19.50;99.90;;;;;;5093371;28;20027;-79
2021/06/08 05:42:19;;;;;;;2.83;2.33;;;19.60;99.90;;;;;;5093170;28;20023;-79
2021/06/08 05:44:46;;;;;;;8.48;2.70;;;19.70;99.90;;;;;;5091846;28;20111;-79
2021/06/08 05:47:11;;;;;;;3.00;2.80;;;19.80;99.90;;;;;;5092911;28;20032;-79
2021/06/08 05:49:39;;;;;;;5.85;2.08;;;19.80;99.90;;;;;;5093236;28;20095;-79
2021/06/08 05:52:06;;;;;;;2.88;2.67;;;19.90;99.90;;;;;;5093171;28;20443;-78
2021/06/08 05:54:32;;;;;;;2.80;2.70;;;19.90;99.90;;;;;;5092952;28;20031;-79
2021/06/08 05:56:59;;;;;;;2.30;2.20;;;20.00;99.90;;;;;;5092618;28;20036;-79
2021/06/08 05:59:25;;;;;;;3.75;2.88;;;20.10;99.90;;;;;;5092804;28;20050;-79
2021/06/08 06:01:52;;;;;;;2.08;1.98;;;20.20;99.90;;;;;;5093086;28;20066;-79
2021/06/08 06:04:18;;;;;;;2.92;2.70;;;20.20;99.90;;;;;;5092708;28;20448;-79
2021/06/08 06:06:45;;;;;;;2.78;2.47;;;20.30;99.90;;;;;;5092882;28;20421;-79
2021/06/08 06:09:12;;;;;;;2.60;2.20;;;20.40;99.90;;;;;;5097009;28;20032;-79
2021/06/08 06:11:46;;;;;;;4.43;2.80;;;20.50;99.90;;;;;;5088229;28;20692;-79
2021/06/08 06:14:14;;;;;;;2.20;2.00;;;20.40;99.90;;;;;;5076698;28;20032;-79
2021/06/08 06:16:45;;;;;;;7.50;2.80;;;20.50;99.90;;;;;;5091649;28;20028;-78
2021/06/08 06:19:11;;;;;;;2.25;2.13;;;20.50;99.90;;;;;;5095834;28;20131;-79
2021/06/08 06:21:38;;;;;;;2.13;2.03;;;20.60;99.90;;;;;;5096710;28;20067;-79
2021/06/08 06:24:05;;;;;;;2.60;2.50;;;20.70;99.90;;;;;;5095547;28;20024;-79
2021/06/08 06:26:33;;;;;;;3.67;2.40;;;20.70;99.90;;;;;;5095453;28;20032;-79
2021/06/08 06:29:00;;;;;;;3.95;2.75;;;20.80;99.90;;;;;;5095443;28;20024;-79
2021/06/08 06:31:26;;;;;;;2.80;2.60;;;20.90;99.90;;;;;;5129473;27;20582;-79
2021/06/08 06:33:56;;;;;;;5.45;2.38;;;21.00;99.90;;;;;;5096485;28;20487;-79
2021/06/08 06:36:25;;;;;;;4.65;2.72;;;21.00;99.90;;;;;;5095291;28;20028;-79
2021/06/08 06:38:52;;;;;;;2.50;2.30;;;21.10;99.90;;;;;;5095085;28;20108;-78
2021/06/08 06:41:19;;;;;;;2.50;2.40;;;21.20;99.90;;;;;;5122970;27;20036;-79
2021/06/08 06:43:54;;;;;;;2.38;2.17;;;21.30;99.90;;;;;;5076142;28;20012;-79
2021/06/08 06:46:21;;;;;;;2.72;2.53;;;21.40;99.90;;;;;;5076259;28;20067;-79
2021/06/08 06:48:50;;;;;;;3.00;1.98;;;21.50;99.90;;;;;;5090240;28;20016;-79
2021/06/08 06:51:16;;;;;;;2.40;2.10;;;21.60;99.90;;;;;;5095215;28;20036;-79
2021/06/08 06:53:43;;;;;;;2.65;2.40;;;21.70;99.90;;;;;;5096343;28;20066;-79
2021/06/08 06:56:08;;;;;;;3.30;2.50;;;21.80;99.90;;;;;;5096230;28;20031;-79
2021/06/08 06:58:35;;;;;;;3.60;2.25;;;21.80;99.90;;;;;;5096119;28;20477;-78
2021/06/08 07:01:02;;;;;;;3.15;2.55;;;21.90;99.10;;;;;;5092581;28;20028;-78
2021/06/08 07:03:31;;;;;;;2.55;2.45;;;21.90;98.40;;;;;;5094204;28;20020;-79
2021/06/08 07:05:58;;;;;;;3.15;2.95;;;22.00;98.70;;;;;;5104081;28;20027;-78
2021/06/08 07:08:26;;;;;;;2.60;2.50;;;22.00;98.90;;;;;;5104344;28;20028;-78
2021/06/08 07:10:56;;;;;;;2.72;2.53;;;22.00;98.50;;;;;;5092262;28;20097;-78
2021/06/08 07:13:22;;;;;;;2.78;2.60;;;22.10;98.40;;;;;;5094132;28;20036;-78
2021/06/08 07:15:50;;;;;;;2.63;2.45;;;22.20;98.90;;;;;;5096150;28;20428;-78
2021/06/08 07:18:16;;;;;;;5.05;2.83;;;22.20;99.40;;;;;;5094928;28;20063;-79
2021/06/08 07:20:43;;;;;;;2.60;2.50;;;22.20;98.70;;;;;;5100710;28;20732;-79
2021/06/08 07:23:09;;;;;;;2.80;2.70;;;22.30;98.30;;;;;;5093998;28;20610;-79
2021/06/08 07:25:39;;;;;;;2.90;2.70;;;22.40;97.60;;;;;;5094370;28;20578;-78
2021/06/08 07:28:06;;;;;;;3.08;2.88;;;22.50;97.60;;;;;;5095158;28;20031;-79
2021/06/08 07:30:43;;;;;;;2.85;2.65;;;22.40;97.70;;;;;;5093711;28;20069;-78
2021/06/08 07:33:09;;;;;;;3.10;2.47;;;22.40;97.30;;;;;;5093950;28;20550;-79
2021/06/08 07:35:40;;;;;;;3.17;2.97;;;22.40;96.40;;;;;;5093668;28;20127;-79
2021/06/08 07:38:15;;;;;;;3.33;3.13;;;22.50;97.90;;;;;;5094533;28;20051;-77
2021/06/08 07:40:49;;;;;;;4.18;2.85;;;22.50;97.70;;;;;;5093534;28;20820;-77
2021/06/08 07:43:19;;;;;;;4.47;3.35;;;22.50;97.00;;;;;;5094338;28;20036;-78
2021/06/08 07:45:50;;;;;;;3.05;2.85;;;22.60;97.60;;;;;;5094932;28;20080;-78
2021/06/08 07:48:24;;;;;;;3.30;3.10;;;22.60;97.50;;;;;;5093876;28;20020;-77
2021/06/08 07:50:53;;;;;;;3.88;3.58;;;22.60;96.70;;;;;;5096370;28;20024;-77
2021/06/08 07:53:21;;;;;;;3.13;2.92;;;22.60;96.50;;;;;;5113987;28;20628;-78
2021/06/08 07:55:50;;;;;;;3.40;3.10;;;22.70;96.60;;;;;;5099463;28;20031;-77
2021/06/08 07:58:23;;;;;;;3.22;2.97;;;22.80;96.50;;;;;;5094708;28;20097;-78
2021/06/08 08:00:57;;;;;;;3.30;3.10;;;22.80;96.90;;;;;;5111816;28;20020;-78
2021/06/08 08:03:32;;;;;;;3.83;3.53;;;22.90;96.20;;;;;;5094674;28;20020;-77
2021/06/08 08:06:07;;;;;;;3.72;3.28;;;23.00;95.20;;;;;;5105655;28;20024;-77
2021/06/08 08:08:34;;;;;;;3.67;3.38;;;23.10;95.00;;;;;;5098903;28;20024;-77
2021/06/08 08:11:05;;;;;;;3.22;2.92;;;23.10;95.90;;;;;;5099160;28;20017;-78
2021/06/08 08:13:31;;;;;;;5.20;2.90;;;23.10;96.50;;;;;;5092894;28;20035;-77
2021/06/08 08:15:57;;;;;;;4.47;3.55;;;23.10;96.10;;;;;;5121758;27;20032;-77
2021/06/08 08:18:24;;;;;;;3.83;3.50;;;23.20;95.90;;;;;;5108929;28;20024;-77
2021/06/08 08:20:53;;;;;;;3.42;3.20;;;23.20;95.20;;;;;;5113527;28;20023;-77
2021/06/08 08:23:20;;;;;;;3.53;3.33;;;23.30;96.60;;;;;;5114468;28;20101;-77
2021/06/08 08:25:47;;;;;;;3.70;3.28;;;23.30;96.00;;;;;;5114443;28;20055;-77
2021/06/08 08:28:14;;;;;;;3.80;3.30;;;23.30;96.40;;;;;;5114540;28;20092;-77
2021/06/08 08:30:41;;;;;;;5.72;3.40;;;23.40;95.60;;;;;;5113554;28;20076;-78
2021/06/08 08:33:07;;;;;;;3.50;3.22;;;23.40;96.10;;;;;;5081230;28;20091;-77
2021/06/08 08:35:35;;;;;;;6.82;3.53;;;23.60;95.10;;;;;;5105393;28;20028;-78
2021/06/08 08:38:00;;;;;;;3.75;3.40;;;23.50;95.10;;;;;;5094100;28;20031;-77
2021/06/08 08:40:26;;;;;;;3.53;3.33;;;23.60;96.30;;;;;;5092935;28;20487;-78
2021/06/08 08:42:53;;;;;;;3.40;3.20;;;23.70;95.60;;;;;;5093790;28;20103;-77
2021/06/08 08:45:20;;;;;;;3.15;2.95;;;23.90;95.20;;;;;;5093913;28;20487;-77
2021/06/08 08:47:45;;;;;;;3.38;3.17;;;24.00;94.50;;;;;;5092635;28;20487;-77
2021/06/08 08:50:16;;;;;;;3.97;3.63;;;24.00;94.00;;;;;;5105291;28;20032;-78
2021/06/08 08:52:56;;;;;;;4.90;3.40;;;24.00;94.60;;;;;;5113966;28;20423;-77
2021/06/08 08:55:27;;;;;;;5.82;3.50;;;24.00;94.30;;;;;;5101592;28;20035;-77
2021/06/08 08:57:56;;;;;;;3.38;3.08;;;24.10;94.20;;;;;;5100743;28;20023;-78
2021/06/08 09:00:25;;;;;;;3.70;3.50;;;24.10;94.00;;;;;;5093638;28;20379;-77
2021/06/08 09:02:55;;;;;;;4.95;3.08;;;24.10;92.90;;;;;;5094992;28;20088;-77
2021/06/08 09:05:22;;;;;;;3.58;3.38;;;24.10;93.10;;;;;;5100146;28;20059;-77
2021/06/08 09:07:53;;;;;;;3.55;3.30;;;24.10;92.30;;;;;;5093687;28;20023;-77
2021/06/08 09:10:19;;;;;;;3.72;3.42;;;24.10;93.00;;;;;;5107255;28;20379;-77
2021/06/08 09:12:45;;;;;;;8.10;3.47;;;24.20;93.70;;;;;;5095329;28;20020;-77
2021/06/08 09:15:11;;;;;;;3.65;3.42;;;24.20;93.50;;;;;;5093274;28;20778;-78
2021/06/08 09:17:40;;;;;;;3.15;3.05;;;24.20;93.00;;;;;;5101119;28;20020;-77
2021/06/08 09:20:10;;;;;;;3.97;3.78;;;24.20;93.00;;;;;;5112508;28;20041;-78
2021/06/08 09:22:49;;;;;;;4.38;4.10;;;24.30;92.90;;;;;;5113508;28;20421;-77
2021/06/08 09:25:38;;;;;;;3.85;3.65;;;24.20;92.60;;;;;;5110939;28;20023;-78
2021/06/08 09:28:22;;;;;;;3.72;3.53;;;24.20;92.80;;;;;;5093129;28;20020;-78
2021/06/08 09:30:54;;;;;;;4.00;3.70;;;24.30;94.20;;;;;;5092798;28;20048;-77
2021/06/08 09:33:27;;;;;;;3.80;3.60;;;24.40;94.30;;;;;;5106423;28;20024;-77
2021/06/08 09:35:55;;;;;;;4.53;4.00;;;24.60;94.70;;;;;;5091471;28;20042;-77
2021/06/08 09:38:22;;;;;;;3.53;3.08;;;24.70;93.80;;;;;;5098890;28;20506;-77
2021/06/08 09:40:48;;;;;;;5.63;3.88;;;24.80;94.00;;;;;;5103156;28;20027;-77
2021/06/08 09:43:15;;;;;;;3.75;3.03;;;25.10;93.50;;;;;;5106792;28;20016;-77
2021/06/08 09:45:49;;;;;;;5.20;3.63;;;25.00;92.90;;;;;;5092440;28;20174;-77
2021/06/08 09:48:16;;;;;;;4.40;4.00;;;25.20;93.10;;;;;;5106255;28;20098;-77
2021/06/08 09:50:45;;;;;;;4.80;3.70;;;25.20;92.90;;;;;;5111830;28;20034;-77
2021/06/08 09:53:26;;;;;;;4.07;3.65;;;25.20;92.10;;;;;;5101853;28;20601;-77
2021/06/08 09:55:59;;;;;;;4.70;4.30;;;25.20;91.60;;;;;;5092286;28;20073;-77
2021/06/08 09:58:27;;;;;;;4.28;3.97;;;25.30;91.20;;;;;;5092580;28;20099;-77
2021/06/08 10:01:15;;;;;;;4.35;4.05;;;25.30;91.90;;;;;;5092750;28;20536;-76
2021/06/08 10:03:45;;;;;;;6.78;3.78;;;25.30;91.40;;;;;;5091708;28;20020;-78
2021/06/08 10:06:16;;;;;;;3.83;3.53;;;25.40;91.60;;;;;;5093034;28;20032;-79
2021/06/08 10:09:04;;;;;;;4.35;4.03;;;25.50;91.90;;;;;;5092688;28;20505;-78
2021/06/08 10:11:33;;;;;;;3.85;3.55;;;25.80;90.80;;;;;;5093035;28;20031;-77
2021/06/08 10:14:19;;;;;;;3.88;3.58;;;25.90;90.30;;;;;;5092981;28;20093;-77
2021/06/08 10:16:58;;;;;;;4.10;3.70;;;25.80;88.50;;;;;;5092541;28;20555;-77
2021/06/08 10:19:27;;;;;;;6.10;4.53;;;25.80;90.20;;;;;;5091409;28;20024;-76
2021/06/08 10:21:54;;;;;;;3.80;3.50;;;25.90;90.10;;;;;;5092524;28;20032;-78
2021/06/08 10:24:23;;;;;;;3.45;3.25;;;26.00;90.90;;;;;;5092758;28;20032;-77
2021/06/08 10:26:52;;;;;;;4.07;3.78;;;26.10;90.40;;;;;;5092726;28;20016;-77
2021/06/08 10:29:25;;;;;;;3.45;3.13;;;26.20;90.10;;;;;;5092480;28;20027;-77
2021/06/08 10:31:53;;;;;;;4.07;3.63;;;26.60;90.40;;;;;;5092434;28;20028;-78
2021/06/08 10:34:20;;;;;;;5.10;3.72;;;26.80;89.10;;;;;;5092226;28;20024;-77
2021/06/08 10:36:48;;;;;;;3.80;3.60;;;26.90;90.00;;;;;;5090734;28;20127;-78
2021/06/08 10:39:22;;;;;;;3.80;3.50;;;27.00;90.00;;;;;;5092583;28;20026;-77
2021/06/08 10:41:48;;;;;;;10.35;3.72;;;26.80;87.60;;;;;;5092604;28;20107;-77
2021/06/08 10:44:23;;;;;;;5.68;4.00;;;26.90;87.60;;;;;;5092379;28;20028;-77
2021/06/08 10:46:56;;;;;;;10.07;3.88;;;26.80;87.70;;;;;;5092577;28;20024;-76
2021/06/08 10:49:35;;;;;;;3.75;3.22;;;26.90;87.10;;;;;;5092665;28;20032;-76
2021/06/08 10:52:12;;;;;;;3.58;3.35;;;26.80;86.50;;;;;;5091938;28;20016;-76
2021/06/08 10:54:47;;;;;;;3.72;3.42;;;26.70;85.20;;;;;;5094974;28;20031;-77
2021/06/08 10:57:16;;;;;;;3.85;3.50;;;26.90;87.70;;;;;;5096172;28;20020;-78
2021/06/08 10:59:44;;;;;;;7.22;3.72;;;26.80;84.80;;;;;;5094231;28;20151;-78
2021/06/08 11:02:12;;;;;;;4.40;4.10;;;26.80;86.60;;;;;;5096073;28;20023;-78
2021/06/08 11:04:51;;;;;;;4.22;3.83;;;26.70;86.10;;;;;;5096255;28;20093;-78
2021/06/08 11:07:43;;;;;;;3.45;3.20;;;26.70;85.70;;;;;;5094869;28;20039;-79
2021/06/08 11:10:30;;;;;;;3.72;3.53;;;26.70;82.60;;;;;;5094653;28;20028;-77
2021/06/08 11:13:11;;;;;;;4.72;3.33;;;26.70;83.70;;;;;;5094795;28;20036;-77
2021/06/08 11:15:42;;;;;;;3.63;3.30;;;26.60;81.90;;;;;;5094357;28;20040;-75
2021/06/08 11:18:20;;;;;;;3.63;3.43;;;26.50;82.00;;;;;;5095960;28;20016;-76
2021/06/08 11:21:10;;;;;;;7.20;4.28;;;26.50;84.60;;;;;;5095862;28;20250;-76
2021/06/08 11:23:45;;;;;;;3.53;3.33;;;26.50;84.40;;;;;;5095303;28;20036;-76
2021/06/08 11:26:14;;;;;;;3.78;3.58;;;26.50;84.20;;;;;;5095812;28;20024;-76
2021/06/08 11:28:51;;;;;;;2.97;2.78;;;26.60;82.70;;;;;;5095660;28;20016;-75
2021/06/08 11:31:20;;;;;;;3.15;2.90;;;26.70;81.00;;;;;;5094279;28;20118;-76
2021/06/08 11:33:48;;;;;;;3.83;3.63;;;26.80;78.00;;;;;;5095659;28;20472;-76
2021/06/08 11:36:20;;;;;;;2.90;2.70;;;26.80;77.00;;;;;;5095312;28;20165;-77
2021/06/08 11:38:47;;;;;;;3.45;3.25;;;27.00;78.00;;;;;;5095451;28;20039;-77
2021/06/08 11:41:14;;;;;;;3.53;3.33;;;27.40;78.60;;;;;;5095373;28;20016;-77
2021/06/08 11:43:46;;;;;;;3.30;3.10;;;27.50;80.30;;;;;;5095333;28;20070;-77
2021/06/08 11:46:27;;;;;;;3.92;3.63;;;27.50;79.10;;;;;;5095448;28;20101;-78
2021/06/08 11:49:18;;;;;;;2.97;2.78;;;27.40;77.80;;;;;;5095546;28;20062;-78
2021/06/08 11:52:05;;;;;;;3.15;2.90;;;27.60;76.20;;;;;;5088022;28;20040;-78
2021/06/08 11:54:30;;;;;;;3.40;3.20;;;27.80;76.50;;;;;;5093595;28;20368;-78
2021/06/08 11:56:57;;;;;;;4.22;3.33;;;27.90;73.50;;;;;;5094907;28;20031;-78
2021/06/08 11:59:54;;;;;;;4.82;3.08;;;27.80;74.00;;;;;;5094033;28;20028;-77
2021/06/08 12:02:37;;;;;;;3.70;3.45;;;27.90;74.60;;;;;;5092812;28;20404;-78
2021/06/08 12:05:05;;;;;;;3.75;3.45;;;28.20;76.10;;;;;;5092564;28;20027;-78
2021/06/08 12:07:41;;;;;;;2.92;2.80;;;28.10;72.40;;;;;;5093536;28;20026;-78
2021/06/08 12:10:07;;;;;;;3.05;2.85;;;28.30;71.30;;;;;;5095197;28;20012;-78
2021/06/08 12:12:46;;;;;;;2.90;2.70;;;28.20;71.00;;;;;;5078247;28;20020;-78
2021/06/08 12:15:19;;;;;;;2.47;2.33;;;28.60;73.20;;;;;;5073265;28;20051;-78
2021/06/08 12:17:54;;;;;;;2.58;2.38;;;28.90;66.00;;;;;;5074591;28;20426;-78
2021/06/08 12:20:22;;;;;;;4.38;2.63;;;29.00;62.50;;;;;;5073190;28;20024;-78
2021/06/08 12:22:48;;;;;;;2.30;2.20;;;29.00;63.90;;;;;;5074346;28;20044;-78
2021/06/08 12:25:16;;;;;;;2.45;2.35;;;29.00;63.00;;;;;;5107038;28;20134;-78
2021/06/08 12:27:44;;;;;;;2.38;2.28;;;29.20;61.10;;;;;;5074384;28;20395;-78
2021/06/08 12:30:16;;;;;;;2.58;2.47;;;29.50;61.50;;;;;;5074214;28;20476;-78
2021/06/08 12:32:42;;;;;;;2.38;2.17;;;29.60;58.70;;;;;;5074465;28;20464;-78
2021/06/08 12:35:26;;;;;;;2.20;2.10;;;29.70;62.20;;;;;;5074433;28;20031;-78
2021/06/08 12:37:53;;;;;;;2.70;2.60;;;29.70;58.40;;;;;;5074665;28;20079;-78
2021/06/08 12:40:20;;;;;;;2.30;2.10;;;29.70;58.40;;;;;;5074200;28;20104;-78
2021/06/08 12:42:47;;;;;;;2.22;2.13;;;29.50;57.90;;;;;;5092280;28;20024;-78
2021/06/08 12:45:20;;;;;;;2.15;2.05;;;29.10;55.40;;;;;;5094163;28;20077;-78
2021/06/08 12:47:46;;;;;;;2.50;2.10;;;28.90;54.20;;;;;;5092970;28;20024;-78
2021/06/08 12:50:19;;;;;;;3.08;2.20;;;28.80;56.20;;;;;;5094180;28;20073;-78
2021/06/08 12:52:59;;;;;;;2.42;2.30;;;28.80;56.90;;;;;;5094090;28;20487;-78
2021/06/08 12:55:28;;;;;;;3.65;2.45;;;28.60;58.60;;;;;;5092661;28;20487;-77
2021/06/08 12:57:58;;;;;;;2.50;2.40;;;28.60;55.90;;;;;;5091628;28;20506;-78
2021/06/08 13:00:26;;;;;;;1.85;1.75;;;28.40;56.70;;;;;;5089946;28;20028;-77
2021/06/08 13:02:53;;;;;;;2.13;2.03;;;28.40;58.20;;;;;;5091060;28;20051;-78